Terminal Aerodrome Forecast
Issued by NWS

Home | Current Version | Previous Version | Text Only | Print | Product List | Glossary On
Versions: 1 2 3 4 5 6 7 8 9 10 11 12 13 14 15 16 17 18 19 20
380
FTUS44 KTSA 211720
TAFFYV
TAF
KFYV 211720Z 2118/2218 17013KT P6SM BKN025
      TEMPO 2118/2122 SCT025
     FM212200 17012KT P6SM SCT030
     FM220000 16003KT P6SM SKC
     FM221500 18010G17KT P6SM FEW025=

USA.gov is the U.S. government's official web portal to all federal, state and local government web resources and services.